createdAt,value
2017-08-09T03:30:19.023Z,71.30
2017-08-09T03:32:46.660Z,71.20
2017-08-09T03:35:15.080Z,70.80
2017-08-09T03:37:43.112Z,70.70
2017-08-09T03:40:10.756Z,71.40
2017-08-09T03:42:38.443Z,72.80
2017-08-09T03:45:07.240Z,72.80
2017-08-09T03:47:36.029Z,72.60
2017-08-09T03:50:03.672Z,72.50
2017-08-09T03:52:32.449Z,73.40
2017-08-09T03:55:00.111Z,72.60
2017-08-09T03:57:27.771Z,73.00
2017-08-09T03:59:55.835Z,72.50
2017-08-09T04:02:23.527Z,71.90
2017-08-09T04:04:51.962Z,70.70
2017-08-09T04:07:19.960Z,70.70
2017-08-09T04:09:47.602Z,70.60
2017-08-09T04:12:15.253Z,71.00
2017-08-09T04:14:43.268Z,70.30
2017-08-09T04:17:11.672Z,70.10
2017-08-09T04:19:39.322Z,70.10
2017-08-09T04:22:07.392Z,70.20
2017-08-09T04:24:35.064Z,69.90
2017-08-09T04:27:02.725Z,70.00
2017-08-09T04:29:30.688Z,69.70
2017-08-09T04:31:58.331Z,69.70
2017-08-09T04:34:26.749Z,69.60
2017-08-09T04:36:54.787Z,69.60
2017-08-09T04:39:23.350Z,68.40
2017-08-09T04:41:51.002Z,68.40
2017-08-09T04:44:19.012Z,68.70
2017-08-09T04:46:46.684Z,68.70
2017-08-09T04:49:14.337Z,68.80
2017-08-09T04:51:42.612Z,68.50
2017-08-09T04:54:10.259Z,69.20
2017-08-09T04:56:38.668Z,69.60
2017-08-09T04:59:06.735Z,69.60
2017-08-09T05:01:34.411Z,70.00
2017-08-09T05:04:02.044Z,70.00
2017-08-09T05:06:30.821Z,71.20
2017-08-09T05:08:59.220Z,71.30
2017-08-09T05:11:26.856Z,71.30
2017-08-09T05:13:55.690Z,69.30
2017-08-09T05:16:23.353Z,69.70
2017-08-09T05:18:51.001Z,71.50
2017-08-09T05:21:18.784Z,72.30
2017-08-09T05:23:46.432Z,71.90
2017-08-09T05:26:14.090Z,71.40
2017-08-09T05:28:41.870Z,71.60
2017-08-09T05:31:09.575Z,72.40
2017-08-09T05:33:37.230Z,72.10
2017-08-09T05:36:04.881Z,71.50
2017-08-09T05:38:32.560Z,71.40
2017-08-09T05:41:00.214Z,71.00
2017-08-09T05:43:27.943Z,70.80
2017-08-09T05:45:55.707Z,70.90
2017-08-09T05:48:23.373Z,70.60
2017-08-09T05:50:51.022Z,70.70
2017-08-09T05:53:19.038Z,70.60
2017-08-09T05:55:46.693Z,70.30
2017-08-09T05:58:14.351Z,70.70
2017-08-09T06:00:42.017Z,70.30
2017-08-09T06:03:09.749Z,70.90
2017-08-09T06:05:37.427Z,70.80
2017-08-09T06:08:05.094Z,71.10
2017-08-09T06:10:32.759Z,70.20
2017-08-09T06:13:00.402Z,69.90
2017-08-09T06:15:28.057Z,70.00
2017-08-09T06:17:55.742Z,70.00
2017-08-09T06:20:23.410Z,68.60
2017-08-09T06:22:51.071Z,68.30
2017-08-09T06:25:18.709Z,68.30
2017-08-09T06:27:46.740Z,67.60
2017-08-09T06:30:15.176Z,66.90
2017-08-09T06:32:42.846Z,66.90
2017-08-09T06:35:10.966Z,66.70
2017-08-09T06:37:38.608Z,65.30
2017-08-09T06:40:07.013Z,66.30
2017-08-09T06:42:35.088Z,66.20
2017-08-09T06:45:02.713Z,66.20
2017-08-09T06:47:31.166Z,65.40
2017-08-09T06:49:59.185Z,65.40
2017-08-09T06:52:26.838Z,65.50
2017-08-09T06:54:54.482Z,64.60
2017-08-09T06:57:22.231Z,62.80
2017-08-09T06:59:49.883Z,63.10
2017-08-09T07:02:17.547Z,63.50
2017-08-09T07:04:45.286Z,62.40
2017-08-09T07:07:12.944Z,60.80
2017-08-09T07:09:40.611Z,60.10
2017-08-09T07:12:08.572Z,59.00
2017-08-09T07:14:36.204Z,56.30
2017-08-09T07:17:04.627Z,55.80
2017-08-09T07:19:32.275Z,55.70
2017-08-09T07:21:59.903Z,54.70
2017-08-09T07:24:28.312Z,52.40
2017-08-09T07:26:56.006Z,52.30
2017-08-09T07:29:23.690Z,52.90
2017-08-09T07:31:51.347Z,52.70
2017-08-09T07:34:19.442Z,53.40
2017-08-09T07:36:47.861Z,52.80
2017-08-09T07:39:15.537Z,52.60
2017-08-09T07:41:43.173Z,52.60
2017-08-09T07:44:10.813Z,52.50
2017-08-09T07:46:39.262Z,53.70
2017-08-09T07:49:06.910Z,53.70
2017-08-09T07:51:34.864Z,54.40
2017-08-09T07:54:02.619Z,54.70
2017-08-09T07:56:30.279Z,53.70
2017-08-09T07:58:58.521Z,53.00
2017-08-09T08:01:26.944Z,54.10
2017-08-09T08:03:55.478Z,54.10
2017-08-09T08:06:23.939Z,53.50
2017-08-09T08:08:51.612Z,53.50
2017-08-09T08:11:19.594Z,54.30
2017-08-09T08:13:48.019Z,54.10
2017-08-09T08:16:15.704Z,54.10
2017-08-09T08:18:43.682Z,53.10
2017-08-09T08:21:11.324Z,52.20
2017-08-09T08:23:39.060Z,51.10
2017-08-09T08:26:07.094Z,49.80
2017-08-09T08:28:35.590Z,52.30
2017-08-09T08:31:03.259Z,52.20
2017-08-09T08:33:31.286Z,54.10
2017-08-09T08:35:58.936Z,55.20
2017-08-09T08:38:26.606Z,56.00
2017-08-09T08:40:54.710Z,56.50
2017-08-09T08:43:23.109Z,57.50
2017-08-09T08:45:50.779Z,57.40
2017-08-09T08:48:18.770Z,56.30
2017-08-09T08:50:46.428Z,57.30
2017-08-09T08:53:14.084Z,57.80
2017-08-09T08:55:42.102Z,56.60
2017-08-09T08:58:10.513Z,56.20
2017-08-09T09:00:38.170Z,55.90
2017-08-09T09:03:06.226Z,54.90
2017-08-09T09:05:34.650Z,54.90
2017-08-09T09:08:02.315Z,54.80
2017-08-09T09:10:29.984Z,53.90
2017-08-09T09:12:57.628Z,54.70
2017-08-09T09:15:25.453Z,53.90
2017-08-09T09:17:53.885Z,50.00
2017-08-09T09:20:21.566Z,50.00
2017-08-09T09:22:49.287Z,46.20
2017-08-09T09:25:16.956Z,43.10
2017-08-09T09:27:44.628Z,40.90
2017-08-09T09:30:13.822Z,44.20
2017-08-09T09:32:42.300Z,45.20
2017-08-09T09:35:09.977Z,45.20
2017-08-09T09:37:37.673Z,42.10
2017-08-09T09:40:05.393Z,38.10
2017-08-09T09:42:33.064Z,37.30
2017-08-09T09:45:01.334Z,38.80
2017-08-09T09:47:29.344Z,37.10
2017-08-09T09:49:56.989Z,36.30
2017-08-09T09:52:24.657Z,34.20
2017-08-09T09:54:52.310Z,33.40
2017-08-09T09:57:20.541Z,33.70
2017-08-09T09:59:48.199Z,36.60
2017-08-09T10:02:15.844Z,38.90
2017-08-09T10:04:43.671Z,37.10
2017-08-09T10:07:12.091Z,27.40
2017-08-09T10:09:40.569Z,24.70
2017-08-09T10:12:08.351Z,24.70
2017-08-09T10:14:36.048Z,22.80
2017-08-09T10:17:03.719Z,24.70
2017-08-09T10:19:31.398Z,28.20
2017-08-09T10:22:00.491Z,28.80
2017-08-09T10:24:28.201Z,25.80
2017-08-09T10:26:55.953Z,24.10
2017-08-09T10:29:23.766Z,21.60
2017-08-09T10:31:51.443Z,23.30
2017-08-09T10:34:19.144Z,21.70
2017-08-09T10:36:47.335Z,21.90
2017-08-09T10:39:15.002Z,21.90
2017-08-09T10:41:42.650Z,21.10
2017-08-09T10:44:10.330Z,19.60
2017-08-09T10:46:37.961Z,19.10
2017-08-09T10:49:05.643Z,19.90
2017-08-09T10:51:33.303Z,19.60
2017-08-09T10:54:00.983Z,18.40
2017-08-09T10:56:28.637Z,17.50
2017-08-09T10:58:56.685Z,19.00
2017-08-09T11:01:24.373Z,22.30
2017-08-09T11:03:52.044Z,24.40
2017-08-09T11:06:20.076Z,22.40
2017-08-09T11:08:48.490Z,26.30
2017-08-09T11:11:16.137Z,26.30
2017-08-09T11:13:44.181Z,29.20
2017-08-09T11:16:11.821Z,31.30
2017-08-09T11:18:39.487Z,30.60
2017-08-09T11:21:07.589Z,30.80
2017-08-09T11:23:35.229Z,33.80
2017-08-09T11:26:02.887Z,32.30
2017-08-09T11:28:30.877Z,29.40
2017-08-09T11:30:59.299Z,33.30
2017-08-09T11:33:32.401Z,33.30
2017-08-09T11:36:00.132Z,35.60
2017-08-09T11:38:27.856Z,36.70
2017-08-09T11:40:56.786Z,37.70
2017-08-09T11:43:24.424Z,37.70
2017-08-09T11:45:52.076Z,37.20
2017-08-09T11:48:20.830Z,35.90
2017-08-09T11:50:48.480Z,35.80
2017-08-09T11:53:16.192Z,35.10
2017-08-09T11:55:44.975Z,34.50
2017-08-09T11:58:13.391Z,35.90
2017-08-09T12:00:41.162Z,35.90
2017-08-09T12:03:09.214Z,36.20
2017-08-09T12:05:36.874Z,35.50
2017-08-09T12:08:04.532Z,33.40
2017-08-09T12:10:32.534Z,34.70
2017-08-09T12:13:00.185Z,35.40
2017-08-09T12:15:28.651Z,36.40
2017-08-09T12:17:56.754Z,36.70
2017-08-09T12:20:24.425Z,36.70
2017-08-09T12:22:52.093Z,36.80
2017-08-09T12:25:20.180Z,37.90
2017-08-09T12:27:48.473Z,38.30
2017-08-09T12:30:16.876Z,39.80
2017-08-09T12:32:45.040Z,39.80
2017-08-09T12:35:12.679Z,38.40
2017-08-09T12:37:40.320Z,38.10
2017-08-09T12:40:08.537Z,37.90
2017-08-09T12:42:36.181Z,37.50
2017-08-09T12:45:04.577Z,36.60
2017-08-09T12:47:33.454Z,36.00
2017-08-09T12:50:01.872Z,35.60
2017-08-09T12:52:29.502Z,35.60
2017-08-09T12:54:58.412Z,34.20
2017-08-09T12:57:26.064Z,34.20
2017-08-09T12:59:53.722Z,35.80
2017-08-09T13:02:21.386Z,35.90
2017-08-09T13:04:49.269Z,36.40
2017-08-09T13:07:17.372Z,37.50
2017-08-09T13:09:45.012Z,36.90
2017-08-09T13:12:12.642Z,36.50
2017-08-09T13:14:41.127Z,37.20
2017-08-09T13:17:08.786Z,37.20
2017-08-09T13:19:37.212Z,38.10
2017-08-09T13:22:04.849Z,38.10
2017-08-09T13:24:32.510Z,38.50
2017-08-09T13:27:00.163Z,38.30
2017-08-09T13:29:27.830Z,38.00
2017-08-09T13:31:55.597Z,37.10
2017-08-09T13:34:23.963Z,36.40
2017-08-09T13:36:51.596Z,36.50
2017-08-09T13:39:19.276Z,36.60
2017-08-09T13:41:47.725Z,37.20
2017-08-09T13:44:15.475Z,37.20
2017-08-09T13:46:43.139Z,36.80
2017-08-09T13:49:10.801Z,36.80
2017-08-09T13:51:38.825Z,36.80
2017-08-09T13:54:06.561Z,38.00
2017-08-09T13:56:34.254Z,38.70
2017-08-09T13:59:01.930Z,38.60
2017-08-09T14:01:29.964Z,39.40
2017-08-09T14:03:57.638Z,38.30
2017-08-09T14:06:26.043Z,39.10
2017-08-09T14:08:53.701Z,39.10
2017-08-09T14:11:21.349Z,38.40
2017-08-09T14:13:49.346Z,39.20
2017-08-09T14:16:17.200Z,39.40
2017-08-09T14:18:44.850Z,39.60
2017-08-09T14:21:12.532Z,40.40
2017-08-09T14:23:40.839Z,40.10
2017-08-09T14:26:08.525Z,39.20
2017-08-09T14:28:36.941Z,38.60
2017-08-09T14:31:05.005Z,38.60
2017-08-09T14:33:32.800Z,38.20
2017-08-09T14:36:00.457Z,38.20
2017-08-09T14:38:28.679Z,38.50
2017-08-09T14:40:57.845Z,39.70
2017-08-09T14:43:25.505Z,39.60
2017-08-09T14:45:53.524Z,40.70
2017-08-09T14:48:21.153Z,40.10
2017-08-09T14:50:48.793Z,39.80
2017-08-09T14:53:16.812Z,40.30
2017-08-09T14:55:44.477Z,40.90
2017-08-09T14:58:12.873Z,40.40
2017-08-09T15:00:40.954Z,40.40
2017-08-09T15:03:08.617Z,40.40
2017-08-09T15:05:36.280Z,40.50
2017-08-09T15:08:03.948Z,41.00
2017-08-09T15:10:31.618Z,40.80
2017-08-09T15:12:59.281Z,40.60
2017-08-09T15:15:26.938Z,40.60
2017-08-09T15:17:54.630Z,40.60
2017-08-09T15:20:22.389Z,40.40
2017-08-09T15:22:50.926Z,40.20
2017-08-09T15:25:18.576Z,40.40
2017-08-09T15:27:46.233Z,40.50
2017-08-09T15:30:14.214Z,40.40
2017-08-09T15:32:41.858Z,39.40
2017-08-09T15:35:10.252Z,40.80
2017-08-09T15:37:38.308Z,40.70
2017-08-09T15:40:06.729Z,41.70
2017-08-09T15:42:34.382Z,41.60
2017-08-09T15:45:02.055Z,41.70
2017-08-09T15:47:29.696Z,41.30
2017-08-09T15:49:57.352Z,41.20
2017-08-09T15:52:24.988Z,41.10
2017-08-09T15:54:54.054Z,41.00
2017-08-09T15:57:21.693Z,41.00
2017-08-09T15:59:49.677Z,40.80
2017-08-09T16:02:17.341Z,41.20
2017-08-09T16:04:44.995Z,42.20
2017-08-09T16:07:12.990Z,41.80
2017-08-09T16:09:40.742Z,41.30
2017-08-09T16:12:08.413Z,41.50
2017-08-09T16:14:36.419Z,41.10
2017-08-09T16:17:04.081Z,41.30
2017-08-09T16:19:31.728Z,41.20
2017-08-09T16:22:00.632Z,41.60
2017-08-09T16:24:28.280Z,41.60
2017-08-09T16:26:56.759Z,41.40
2017-08-09T16:29:24.445Z,41.30
2017-08-09T16:31:52.091Z,41.10
2017-08-09T16:34:20.891Z,42.00
2017-08-09T16:36:48.761Z,42.00
2017-08-09T16:39:16.392Z,42.40
2017-08-09T16:41:44.049Z,42.30
2017-08-09T16:44:11.706Z,42.40
2017-08-09T16:46:39.436Z,42.40
2017-08-09T16:49:07.071Z,42.60
2017-08-09T16:51:34.772Z,42.80
2017-08-09T16:54:02.473Z,42.90
2017-08-09T16:56:31.203Z,43.30
2017-08-09T16:58:58.882Z,43.30
2017-08-09T17:01:26.521Z,43.30
2017-08-09T17:03:54.571Z,43.70
2017-08-09T17:06:22.223Z,44.00
2017-08-09T17:08:50.646Z,44.10
2017-08-09T17:11:18.647Z,44.10
2017-08-09T17:13:46.311Z,44.10
2017-08-09T17:16:13.965Z,44.20
2017-08-09T17:18:41.940Z,44.60
2017-08-09T17:21:09.608Z,45.00
2017-08-09T17:23:37.263Z,44.90
2017-08-09T17:26:05.263Z,44.90
2017-08-09T17:28:33.688Z,45.30
2017-08-09T17:31:01.343Z,45.20
2017-08-09T17:33:29.385Z,45.20
2017-08-09T17:35:57.029Z,44.80
2017-08-09T17:38:25.455Z,45.20
2017-08-09T17:40:53.494Z,45.20
2017-08-09T17:43:21.151Z,45.10
2017-08-09T17:45:49.559Z,45.10
2017-08-09T17:48:17.219Z,45.00
2017-08-09T17:50:44.881Z,45.10
2017-08-09T17:53:12.551Z,45.20
2017-08-09T17:55:40.190Z,45.50
2017-08-09T17:58:07.861Z,45.60
2017-08-09T18:00:35.528Z,45.80
2017-08-09T18:03:03.200Z,45.90
2017-08-09T18:05:31.641Z,46.00
2017-08-09T18:07:59.512Z,46.20
2017-08-09T18:10:27.577Z,46.40
2017-08-09T18:12:55.990Z,47.00
2017-08-09T18:15:23.622Z,46.90
2017-08-09T18:17:52.449Z,47.60
2017-08-09T18:20:20.090Z,46.90
2017-08-09T18:22:47.717Z,46.90
2017-08-09T18:25:15.723Z,47.20
2017-08-09T18:27:43.404Z,47.10
2017-08-09T18:30:11.099Z,47.10
2017-08-09T18:32:39.103Z,47.20
2017-08-09T18:35:06.781Z,47.10
2017-08-09T18:37:34.441Z,47.10
2017-08-09T18:40:02.513Z,47.50
2017-08-09T18:42:30.172Z,48.10
2017-08-09T18:44:57.842Z,48.20
2017-08-09T18:47:25.509Z,48.50
2017-08-09T18:49:53.154Z,48.60
2017-08-09T18:52:20.835Z,48.60
2017-08-09T18:54:48.553Z,48.60
2017-08-09T18:57:17.300Z,48.30
2017-08-09T18:59:44.956Z,48.30
2017-08-09T19:02:12.628Z,48.50
2017-08-09T19:04:40.345Z,48.50
2017-08-09T19:07:08.028Z,48.40
2017-08-09T19:09:35.706Z,48.20
2017-08-09T19:12:03.463Z,48.60
2017-08-09T19:14:31.470Z,48.50
2017-08-09T19:16:59.279Z,49.00
2017-08-09T19:19:26.949Z,49.00
2017-08-09T19:21:54.620Z,49.10
2017-08-09T19:24:22.373Z,49.90
2017-08-09T19:39:50.389Z,49.70
2017-08-09T19:42:18.033Z,51.80
2017-08-09T19:44:45.865Z,51.40
2017-08-09T19:47:13.770Z,51.00
2017-08-09T19:49:41.596Z,50.70
2017-08-09T19:52:09.339Z,50.90
2017-08-09T19:54:37.033Z,50.40
2017-08-09T19:57:04.718Z,50.50
2017-08-09T19:59:32.383Z,50.60
2017-08-09T20:02:00.050Z,50.70
2017-08-09T20:04:27.717Z,50.60
2017-08-09T20:06:55.737Z,50.70
2017-08-09T20:09:23.503Z,50.50
2017-08-09T20:11:51.172Z,50.90
2017-08-09T20:14:18.856Z,51.20
2017-08-09T20:16:46.830Z,51.70
2017-08-09T20:19:14.853Z,51.50
2017-08-09T20:21:42.517Z,51.30
2017-08-09T20:24:10.165Z,51.50
2017-08-09T20:26:39.070Z,51.90
2017-08-09T20:29:06.741Z,51.90
2017-08-09T20:31:34.408Z,51.60
2017-08-09T20:34:02.440Z,51.10
2017-08-09T20:36:30.089Z,50.40
2017-08-09T20:38:57.748Z,50.00
2017-08-09T20:41:25.853Z,50.10
2017-08-09T20:43:53.485Z,50.20
2017-08-09T20:46:22.103Z,50.00
2017-08-09T20:48:50.177Z,50.00
2017-08-09T20:51:17.825Z,49.80
2017-08-09T20:53:46.272Z,50.50
2017-08-09T20:56:14.300Z,50.50
2017-08-09T20:58:41.947Z,50.20
2017-08-09T21:01:09.602Z,49.80
2017-08-09T21:03:38.499Z,49.60
2017-08-09T21:06:06.164Z,49.60
2017-08-09T21:08:33.943Z,49.80
2017-08-09T21:11:01.896Z,50.00
2017-08-09T21:13:29.554Z,50.20
2017-08-09T21:15:57.194Z,50.20
2017-08-09T21:18:25.198Z,50.10
2017-08-09T21:20:52.830Z,50.30
2017-08-09T21:23:21.246Z,51.20
2017-08-09T21:25:49.304Z,50.40
2017-08-09T21:28:17.081Z,50.80
2017-08-09T21:30:44.705Z,51.40
2017-08-09T21:33:12.791Z,52.30
2017-08-09T21:35:40.472Z,52.90
2017-08-09T21:38:08.122Z,53.50
2017-08-09T21:40:36.554Z,54.30
2017-08-09T21:43:04.239Z,54.20
2017-08-09T21:45:31.910Z,54.60
2017-08-09T21:48:00.325Z,54.30
2017-08-09T21:50:28.279Z,54.20
2017-08-09T21:52:56.897Z,53.70
2017-08-09T21:55:24.704Z,53.60
2017-08-09T21:57:53.448Z,54.70
2017-08-09T22:00:21.105Z,54.10
2017-08-09T22:02:49.084Z,54.20
2017-08-09T22:05:17.225Z,54.60
2017-08-09T22:07:44.885Z,54.70
2017-08-09T22:10:13.438Z,55.30
2017-08-09T22:12:41.116Z,55.10
2017-08-09T22:15:10.583Z,55.50
2017-08-09T22:17:38.258Z,55.50
2017-08-09T22:20:06.722Z,55.70
2017-08-09T22:22:34.383Z,55.70
2017-08-09T22:25:02.026Z,56.00
2017-08-09T22:27:29.995Z,56.00
2017-08-09T22:29:57.646Z,56.30
